sensor_id;sensor_type;location;lat;lon;timestamp;P1;durP1;ratioP1;P2;durP2;ratioP2
78887;SDS011;68276;49.326;8.690;2023-04-09T00:00:31;10.27;;;3.50;;
78887;SDS011;68276;49.326;8.690;2023-04-09T00:02:56;9.43;;;3.53;;
78887;SDS011;68276;49.326;8.690;2023-04-09T00:05:22;10.60;;;3.50;;
78887;SDS011;68276;49.326;8.690;2023-04-09T00:07:47;10.38;;;4.13;;
78887;SDS011;68276;49.326;8.690;2023-04-09T00:10:12;10.43;;;3.87;;
78887;SDS011;68276;49.326;8.690;2023-04-09T00:12:38;10.90;;;3.97;;
78887;SDS011;68276;49.326;8.690;2023-04-09T00:15:03;12.43;;;4.63;;
78887;SDS011;68276;49.326;8.690;2023-04-09T00:17:29;10.40;;;3.75;;
78887;SDS011;68276;49.326;8.690;2023-04-09T00:19:54;12.87;;;4.27;;
78887;SDS011;68276;49.326;8.690;2023-04-09T00:22:20;11.60;;;4.47;;
78887;SDS011;68276;49.326;8.690;2023-04-09T00:24:45;12.03;;;3.93;;
78887;SDS011;68276;49.326;8.690;2023-04-09T00:27:10;11.33;;;3.80;;
78887;SDS011;68276;49.326;8.690;2023-04-09T00:29:36;10.70;;;3.88;;
78887;SDS011;68276;49.326;8.690;2023-04-09T00:32:01;11.18;;;4.40;;
78887;SDS011;68276;49.326;8.690;2023-04-09T00:34:27;11.73;;;4.50;;
78887;SDS011;68276;49.326;8.690;2023-04-09T00:36:52;12.13;;;4.10;;
78887;SDS011;68276;49.326;8.690;2023-04-09T00:39:17;10.95;;;4.20;;
78887;SDS011;68276;49.326;8.690;2023-04-09T00:41:43;11.47;;;4.57;;
78887;SDS011;68276;49.326;8.690;2023-04-09T00:44:08;10.83;;;4.23;;
78887;SDS011;68276;49.326;8.690;2023-04-09T00:46:33;10.13;;;3.83;;
78887;SDS011;68276;49.326;8.690;2023-04-09T00:48:59;11.40;;;3.83;;
78887;SDS011;68276;49.326;8.690;2023-04-09T00:51:24;12.45;;;4.22;;
78887;SDS011;68276;49.326;8.690;2023-04-09T00:53:50;12.60;;;4.38;;
78887;SDS011;68276;49.326;8.690;2023-04-09T00:56:17;13.02;;;4.35;;
78887;SDS011;68276;49.326;8.690;2023-04-09T00:58:45;10.98;;;4.20;;
78887;SDS011;68276;49.326;8.690;2023-04-09T01:01:11;12.63;;;4.85;;
78887;SDS011;68276;49.326;8.690;2023-04-09T01:03:36;10.83;;;4.03;;
78887;SDS011;68276;49.326;8.690;2023-04-09T01:06:07;10.27;;;3.78;;
78887;SDS011;68276;49.326;8.690;2023-04-09T01:16:55;11.82;;;4.38;;
78887;SDS011;68276;49.326;8.690;2023-04-09T01:22:02;12.18;;;4.38;;
78887;SDS011;68276;49.326;8.690;2023-04-09T01:27:21;11.35;;;4.50;;
78887;SDS011;68276;49.326;8.690;2023-04-09T01:29:48;10.55;;;4.25;;
78887;SDS011;68276;49.326;8.690;2023-04-09T01:32:17;12.02;;;4.15;;
78887;SDS011;68276;49.326;8.690;2023-04-09T01:34:45;10.68;;;4.05;;
78887;SDS011;68276;49.326;8.690;2023-04-09T01:37:11;11.55;;;4.30;;
78887;SDS011;68276;49.326;8.690;2023-04-09T01:39:39;11.45;;;4.32;;
78887;SDS011;68276;49.326;8.690;2023-04-09T01:42:05;11.23;;;4.45;;
78887;SDS011;68276;49.326;8.690;2023-04-09T01:44:35;12.00;;;5.03;;
78887;SDS011;68276;49.326;8.690;2023-04-09T01:47:03;11.05;;;4.40;;
78887;SDS011;68276;49.326;8.690;2023-04-09T01:49:29;11.48;;;3.83;;
78887;SDS011;68276;49.326;8.690;2023-04-09T01:54:21;11.10;;;4.75;;
78887;SDS011;68276;49.326;8.690;2023-04-09T01:56:47;13.53;;;4.50;;
78887;SDS011;68276;49.326;8.690;2023-04-09T01:59:12;11.10;;;4.10;;
78887;SDS011;68276;49.326;8.690;2023-04-09T02:01:45;12.38;;;4.45;;
78887;SDS011;68276;49.326;8.690;2023-04-09T02:04:34;12.48;;;5.35;;
78887;SDS011;68276;49.326;8.690;2023-04-09T02:10:01;12.57;;;4.32;;
78887;SDS011;68276;49.326;8.690;2023-04-09T02:12:30;12.07;;;4.57;;
78887;SDS011;68276;49.326;8.690;2023-04-09T02:15:00;11.25;;;4.70;;
78887;SDS011;68276;49.326;8.690;2023-04-09T02:17:27;11.45;;;4.63;;
78887;SDS011;68276;49.326;8.690;2023-04-09T02:19:52;13.48;;;4.53;;
78887;SDS011;68276;49.326;8.690;2023-04-09T02:22:18;11.02;;;4.22;;
78887;SDS011;68276;49.326;8.690;2023-04-09T02:24:44;12.10;;;4.83;;
78887;SDS011;68276;49.326;8.690;2023-04-09T02:27:10;12.38;;;4.93;;
78887;SDS011;68276;49.326;8.690;2023-04-09T02:29:35;12.20;;;4.57;;
78887;SDS011;68276;49.326;8.690;2023-04-09T02:32:00;12.10;;;4.07;;
78887;SDS011;68276;49.326;8.690;2023-04-09T02:34:26;12.32;;;4.80;;
78887;SDS011;68276;49.326;8.690;2023-04-09T02:36:51;12.38;;;4.93;;
78887;SDS011;68276;49.326;8.690;2023-04-09T02:39:17;12.97;;;5.33;;
78887;SDS011;68276;49.326;8.690;2023-04-09T02:41:42;11.45;;;4.43;;
78887;SDS011;68276;49.326;8.690;2023-04-09T02:44:08;13.02;;;5.35;;
78887;SDS011;68276;49.326;8.690;2023-04-09T02:46:34;11.63;;;4.43;;
78887;SDS011;68276;49.326;8.690;2023-04-09T02:48:59;13.23;;;4.90;;
78887;SDS011;68276;49.326;8.690;2023-04-09T02:51:24;14.27;;;4.73;;
78887;SDS011;68276;49.326;8.690;2023-04-09T02:53:50;12.40;;;4.57;;
78887;SDS011;68276;49.326;8.690;2023-04-09T02:56:16;13.80;;;5.30;;
78887;SDS011;68276;49.326;8.690;2023-04-09T02:58:41;10.50;;;4.67;;
78887;SDS011;68276;49.326;8.690;2023-04-09T03:01:06;12.73;;;4.50;;
78887;SDS011;68276;49.326;8.690;2023-04-09T03:03:31;11.43;;;4.20;;
78887;SDS011;68276;49.326;8.690;2023-04-09T03:05:57;12.90;;;4.93;;
78887;SDS011;68276;49.326;8.690;2023-04-09T03:08:22;12.53;;;4.80;;
78887;SDS011;68276;49.326;8.690;2023-04-09T03:10:48;16.63;;;5.70;;
78887;SDS011;68276;49.326;8.690;2023-04-09T03:13:13;15.50;;;5.60;;
78887;SDS011;68276;49.326;8.690;2023-04-09T03:15:38;13.27;;;5.13;;
78887;SDS011;68276;49.326;8.690;2023-04-09T03:18:04;13.90;;;4.90;;
78887;SDS011;68276;49.326;8.690;2023-04-09T03:20:29;15.10;;;5.70;;
78887;SDS011;68276;49.326;8.690;2023-04-09T03:22:55;12.03;;;4.80;;
78887;SDS011;68276;49.326;8.690;2023-04-09T03:25:20;13.67;;;5.60;;
78887;SDS011;68276;49.326;8.690;2023-04-09T03:27:45;13.50;;;5.38;;
78887;SDS011;68276;49.326;8.690;2023-04-09T03:30:11;15.80;;;5.83;;
78887;SDS011;68276;49.326;8.690;2023-04-09T03:32:36;12.85;;;5.47;;
78887;SDS011;68276;49.326;8.690;2023-04-09T03:35:02;13.52;;;5.75;;
78887;SDS011;68276;49.326;8.690;2023-04-09T03:37:27;15.88;;;5.78;;
78887;SDS011;68276;49.326;8.690;2023-04-09T03:39:53;18.47;;;5.83;;
78887;SDS011;68276;49.326;8.690;2023-04-09T03:42:18;11.13;;;5.37;;
78887;SDS011;68276;49.326;8.690;2023-04-09T03:44:43;14.27;;;5.90;;
78887;SDS011;68276;49.326;8.690;2023-04-09T03:47:09;15.90;;;6.03;;
78887;SDS011;68276;49.326;8.690;2023-04-09T03:49:34;14.90;;;6.20;;
78887;SDS011;68276;49.326;8.690;2023-04-09T03:52:00;15.73;;;6.18;;
78887;SDS011;68276;49.326;8.690;2023-04-09T03:54:29;15.48;;;5.72;;
78887;SDS011;68276;49.326;8.690;2023-04-09T03:56:55;13.23;;;5.15;;
78887;SDS011;68276;49.326;8.690;2023-04-09T03:59:20;15.77;;;6.55;;
78887;SDS011;68276;49.326;8.690;2023-04-09T04:01:46;14.55;;;6.15;;
78887;SDS011;68276;49.326;8.690;2023-04-09T04:04:12;15.93;;;6.22;;
78887;SDS011;68276;49.326;8.690;2023-04-09T04:06:37;14.75;;;5.43;;
78887;SDS011;68276;49.326;8.690;2023-04-09T04:09:02;14.97;;;5.83;;
78887;SDS011;68276;49.326;8.690;2023-04-09T04:11:28;14.03;;;5.03;;
78887;SDS011;68276;49.326;8.690;2023-04-09T04:13:54;14.38;;;5.50;;
78887;SDS011;68276;49.326;8.690;2023-04-09T04:16:20;14.80;;;4.72;;
78887;SDS011;68276;49.326;8.690;2023-04-09T04:18:45;16.45;;;5.38;;
78887;SDS011;68276;49.326;8.690;2023-04-09T04:21:13;16.83;;;6.13;;
78887;SDS011;68276;49.326;8.690;2023-04-09T04:23:40;14.43;;;5.78;;
78887;SDS011;68276;49.326;8.690;2023-04-09T04:26:06;14.55;;;6.25;;
78887;SDS011;68276;49.326;8.690;2023-04-09T04:28:34;14.35;;;5.78;;
78887;SDS011;68276;49.326;8.690;2023-04-09T04:31:00;13.93;;;5.45;;
78887;SDS011;68276;49.326;8.690;2023-04-09T04:33:25;13.63;;;6.13;;
78887;SDS011;68276;49.326;8.690;2023-04-09T04:35:50;15.83;;;5.50;;
78887;SDS011;68276;49.326;8.690;2023-04-09T04:38:16;13.90;;;5.75;;
78887;SDS011;68276;49.326;8.690;2023-04-09T04:40:41;18.67;;;6.57;;
78887;SDS011;68276;49.326;8.690;2023-04-09T04:43:06;15.30;;;6.07;;
78887;SDS011;68276;49.326;8.690;2023-04-09T04:45:32;15.53;;;5.57;;
78887;SDS011;68276;49.326;8.690;2023-04-09T04:47:57;15.93;;;5.77;;
78887;SDS011;68276;49.326;8.690;2023-04-09T04:50:22;15.87;;;6.57;;
78887;SDS011;68276;49.326;8.690;2023-04-09T04:52:48;15.57;;;5.90;;
78887;SDS011;68276;49.326;8.690;2023-04-09T04:55:13;14.50;;;6.10;;
78887;SDS011;68276;49.326;8.690;2023-04-09T04:57:39;15.17;;;5.73;;
78887;SDS011;68276;49.326;8.690;2023-04-09T05:00:04;15.33;;;6.00;;
78887;SDS011;68276;49.326;8.690;2023-04-09T05:02:30;16.10;;;5.95;;
78887;SDS011;68276;49.326;8.690;2023-04-09T05:04:55;14.13;;;5.80;;
78887;SDS011;68276;49.326;8.690;2023-04-09T05:07:21;15.00;;;5.93;;
78887;SDS011;68276;49.326;8.690;2023-04-09T05:09:46;16.30;;;6.40;;
78887;SDS011;68276;49.326;8.690;2023-04-09T05:12:12;18.03;;;6.57;;
78887;SDS011;68276;49.326;8.690;2023-04-09T05:14:39;15.63;;;6.25;;
78887;SDS011;68276;49.326;8.690;2023-04-09T05:17:04;15.25;;;6.13;;
78887;SDS011;68276;49.326;8.690;2023-04-09T05:19:30;16.15;;;7.03;;
78887;SDS011;68276;49.326;8.690;2023-04-09T05:21:55;14.52;;;5.82;;
78887;SDS011;68276;49.326;8.690;2023-04-09T05:24:21;16.05;;;6.47;;
78887;SDS011;68276;49.326;8.690;2023-04-09T05:26:46;15.63;;;6.33;;
78887;SDS011;68276;49.326;8.690;2023-04-09T05:29:11;14.53;;;5.53;;
78887;SDS011;68276;49.326;8.690;2023-04-09T05:31:37;14.27;;;5.30;;
78887;SDS011;68276;49.326;8.690;2023-04-09T05:34:04;17.05;;;6.68;;
78887;SDS011;68276;49.326;8.690;2023-04-09T05:36:30;14.73;;;5.68;;
78887;SDS011;68276;49.326;8.690;2023-04-09T05:38:56;17.73;;;6.22;;
78887;SDS011;68276;49.326;8.690;2023-04-09T05:41:21;15.63;;;6.63;;
78887;SDS011;68276;49.326;8.690;2023-04-09T05:43:46;15.63;;;6.30;;
78887;SDS011;68276;49.326;8.690;2023-04-09T05:46:12;15.00;;;6.63;;
78887;SDS011;68276;49.326;8.690;2023-04-09T05:48:37;18.70;;;6.85;;
78887;SDS011;68276;49.326;8.690;2023-04-09T05:51:03;14.15;;;5.97;;
78887;SDS011;68276;49.326;8.690;2023-04-09T05:53:30;17.23;;;6.47;;
78887;SDS011;68276;49.326;8.690;2023-04-09T05:55:56;17.33;;;6.53;;
78887;SDS011;68276;49.326;8.690;2023-04-09T05:58:21;16.80;;;6.13;;
78887;SDS011;68276;49.326;8.690;2023-04-09T06:00:46;17.20;;;6.20;;
78887;SDS011;68276;49.326;8.690;2023-04-09T06:03:12;15.57;;;6.27;;
78887;SDS011;68276;49.326;8.690;2023-04-09T06:05:37;15.80;;;6.07;;
78887;SDS011;68276;49.326;8.690;2023-04-09T06:08:03;15.63;;;7.17;;
78887;SDS011;68276;49.326;8.690;2023-04-09T06:10:30;15.00;;;6.25;;
78887;SDS011;68276;49.326;8.690;2023-04-09T06:12:56;15.45;;;6.38;;
78887;SDS011;68276;49.326;8.690;2023-04-09T06:15:22;18.10;;;7.27;;
78887;SDS011;68276;49.326;8.690;2023-04-09T06:17:47;13.67;;;6.20;;
78887;SDS011;68276;49.326;8.690;2023-04-09T06:20:12;15.13;;;6.47;;
78887;SDS011;68276;49.326;8.690;2023-04-09T06:22:38;17.57;;;6.53;;
78887;SDS011;68276;49.326;8.690;2023-04-09T06:25:03;16.67;;;5.70;;
78887;SDS011;68276;49.326;8.690;2023-04-09T06:27:29;14.73;;;5.90;;
78887;SDS011;68276;49.326;8.690;2023-04-09T06:29:54;15.82;;;6.20;;
78887;SDS011;68276;49.326;8.690;2023-04-09T06:32:20;12.90;;;4.70;;
78887;SDS011;68276;49.326;8.690;2023-04-09T06:34:45;16.57;;;6.33;;
78887;SDS011;68276;49.326;8.690;2023-04-09T06:37:10;15.30;;;5.87;;
78887;SDS011;68276;49.326;8.690;2023-04-09T06:39:36;14.87;;;6.70;;
78887;SDS011;68276;49.326;8.690;2023-04-09T06:42:01;14.50;;;6.07;;
78887;SDS011;68276;49.326;8.690;2023-04-09T06:44:32;14.65;;;6.18;;
78887;SDS011;68276;49.326;8.690;2023-04-09T06:46:58;14.65;;;5.95;;
78887;SDS011;68276;49.326;8.690;2023-04-09T06:49:23;14.23;;;5.20;;
78887;SDS011;68276;49.326;8.690;2023-04-09T06:51:49;16.70;;;6.68;;
78887;SDS011;68276;49.326;8.690;2023-04-09T06:54:17;17.42;;;7.32;;
78887;SDS011;68276;49.326;8.690;2023-04-09T06:56:43;16.83;;;7.10;;
78887;SDS011;68276;49.326;8.690;2023-04-09T06:59:08;15.43;;;5.80;;
78887;SDS011;68276;49.326;8.690;2023-04-09T07:01:33;14.17;;;6.40;;
78887;SDS011;68276;49.326;8.690;2023-04-09T07:04:01;15.90;;;6.55;;
78887;SDS011;68276;49.326;8.690;2023-04-09T07:06:26;15.95;;;7.38;;
78887;SDS011;68276;49.326;8.690;2023-04-09T07:08:52;16.20;;;6.30;;
78887;SDS011;68276;49.326;8.690;2023-04-09T07:11:17;16.07;;;6.17;;
78887;SDS011;68276;49.326;8.690;2023-04-09T07:13:43;15.27;;;6.57;;
78887;SDS011;68276;49.326;8.690;2023-04-09T07:16:08;16.70;;;7.05;;
78887;SDS011;68276;49.326;8.690;2023-04-09T07:18:33;14.57;;;6.10;;
78887;SDS011;68276;49.326;8.690;2023-04-09T07:20:59;15.27;;;6.22;;
78887;SDS011;68276;49.326;8.690;2023-04-09T07:23:24;13.70;;;6.13;;
78887;SDS011;68276;49.326;8.690;2023-04-09T07:25:50;13.50;;;5.50;;
78887;SDS011;68276;49.326;8.690;2023-04-09T07:28:15;18.90;;;7.15;;
78887;SDS011;68276;49.326;8.690;2023-04-09T07:30:41;14.75;;;6.57;;
78887;SDS011;68276;49.326;8.690;2023-04-09T07:33:06;15.37;;;6.33;;
78887;SDS011;68276;49.326;8.690;2023-04-09T07:35:32;16.40;;;6.87;;
78887;SDS011;68276;49.326;8.690;2023-04-09T07:40:23;15.10;;;6.17;;
78887;SDS011;68276;49.326;8.690;2023-04-09T07:42:49;13.90;;;5.63;;
78887;SDS011;68276;49.326;8.690;2023-04-09T07:45:14;13.65;;;6.13;;
78887;SDS011;68276;49.326;8.690;2023-04-09T07:47:41;16.35;;;6.55;;
78887;SDS011;68276;49.326;8.690;2023-04-09T07:50:06;15.63;;;6.78;;
78887;SDS011;68276;49.326;8.690;2023-04-09T07:52:32;15.45;;;6.28;;
78887;SDS011;68276;49.326;8.690;2023-04-09T07:54:58;16.58;;;6.03;;
78887;SDS011;68276;49.326;8.690;2023-04-09T07:57:23;15.90;;;6.37;;
78887;SDS011;68276;49.326;8.690;2023-04-09T07:59:49;13.68;;;5.78;;
78887;SDS011;68276;49.326;8.690;2023-04-09T08:02:15;12.90;;;4.82;;
78887;SDS011;68276;49.326;8.690;2023-04-09T08:04:40;14.13;;;6.32;;
78887;SDS011;68276;49.326;8.690;2023-04-09T08:07:06;13.30;;;5.82;;
78887;SDS011;68276;49.326;8.690;2023-04-09T08:09:31;16.00;;;6.80;;
78887;SDS011;68276;49.326;8.690;2023-04-09T08:11:57;13.53;;;5.97;;
78887;SDS011;68276;49.326;8.690;2023-04-09T08:14:22;14.30;;;6.50;;
78887;SDS011;68276;49.326;8.690;2023-04-09T08:16:47;14.80;;;6.33;;
78887;SDS011;68276;49.326;8.690;2023-04-09T08:19:14;12.88;;;5.90;;
78887;SDS011;68276;49.326;8.690;2023-04-09T08:21:41;16.08;;;5.97;;
78887;SDS011;68276;49.326;8.690;2023-04-09T08:24:08;13.85;;;6.00;;
78887;SDS011;68276;49.326;8.690;2023-04-09T08:26:35;15.13;;;6.63;;
78887;SDS011;68276;49.326;8.690;2023-04-09T08:29:01;13.30;;;6.20;;
78887;SDS011;68276;49.326;8.690;2023-04-09T08:31:26;14.30;;;5.93;;
78887;SDS011;68276;49.326;8.690;2023-04-09T08:33:51;14.05;;;6.70;;
78887;SDS011;68276;49.326;8.690;2023-04-09T08:36:17;14.35;;;5.63;;
78887;SDS011;68276;49.326;8.690;2023-04-09T08:38:43;13.32;;;5.70;;
78887;SDS011;68276;49.326;8.690;2023-04-09T08:41:16;14.07;;;6.03;;
78887;SDS011;68276;49.326;8.690;2023-04-09T08:43:47;13.57;;;6.53;;
78887;SDS011;68276;49.326;8.690;2023-04-09T08:46:14;11.95;;;5.35;;
78887;SDS011;68276;49.326;8.690;2023-04-09T08:48:41;15.23;;;5.97;;
78887;SDS011;68276;49.326;8.690;2023-04-09T08:51:11;14.52;;;5.75;;
78887;SDS011;68276;49.326;8.690;2023-04-09T08:53:37;13.32;;;5.43;;
78887;SDS011;68276;49.326;8.690;2023-04-09T08:56:04;14.52;;;6.05;;
78887;SDS011;68276;49.326;8.690;2023-04-09T08:58:29;12.13;;;4.97;;
78887;SDS011;68276;49.326;8.690;2023-04-09T09:00:55;13.53;;;5.97;;
78887;SDS011;68276;49.326;8.690;2023-04-09T09:03:21;12.55;;;5.68;;
78887;SDS011;68276;49.326;8.690;2023-04-09T09:05:46;12.07;;;5.40;;
78887;SDS011;68276;49.326;8.690;2023-04-09T09:08:22;12.17;;;5.60;;
78887;SDS011;68276;49.326;8.690;2023-04-09T09:10:49;11.45;;;5.38;;
78887;SDS011;68276;49.326;8.690;2023-04-09T09:13:15;12.05;;;5.30;;
78887;SDS011;68276;49.326;8.690;2023-04-09T09:15:43;12.60;;;5.40;;
78887;SDS011;68276;49.326;8.690;2023-04-09T09:18:10;15.10;;;5.18;;
78887;SDS011;68276;49.326;8.690;2023-04-09T09:20:35;13.02;;;5.07;;
78887;SDS011;68276;49.326;8.690;2023-04-09T09:23:01;11.40;;;4.93;;
78887;SDS011;68276;49.326;8.690;2023-04-09T09:25:27;10.77;;;4.45;;
78887;SDS011;68276;49.326;8.690;2023-04-09T09:27:54;11.20;;;4.82;;
78887;SDS011;68276;49.326;8.690;2023-04-09T09:30:31;10.60;;;4.70;;
78887;SDS011;68276;49.326;8.690;2023-04-09T09:33:05;10.90;;;3.60;;
78887;SDS011;68276;49.326;8.690;2023-04-09T09:35:53;10.73;;;4.00;;
78887;SDS011;68276;49.326;8.690;2023-04-09T09:38:18;10.75;;;4.53;;
78887;SDS011;68276;49.326;8.690;2023-04-09T09:40:45;10.90;;;4.40;;
78887;SDS011;68276;49.326;8.690;2023-04-09T09:43:11;9.48;;;3.72;;
78887;SDS011;68276;49.326;8.690;2023-04-09T09:48:03;10.23;;;4.50;;
78887;SDS011;68276;49.326;8.690;2023-04-09T09:50:29;11.27;;;4.82;;
78887;SDS011;68276;49.326;8.690;2023-04-09T09:52:58;11.20;;;4.60;;
78887;SDS011;68276;49.326;8.690;2023-04-09T09:55:29;10.55;;;4.03;;
78887;SDS011;68276;49.326;8.690;2023-04-09T09:57:56;10.27;;;4.65;;
78887;SDS011;68276;49.326;8.690;2023-04-09T10:00:25;10.80;;;4.38;;
78887;SDS011;68276;49.326;8.690;2023-04-09T10:02:55;10.45;;;4.60;;
78887;SDS011;68276;49.326;8.690;2023-04-09T10:05:23;10.32;;;4.45;;
78887;SDS011;68276;49.326;8.690;2023-04-09T10:07:53;9.40;;;4.00;;
78887;SDS011;68276;49.326;8.690;2023-04-09T10:10:20;9.90;;;4.40;;
78887;SDS011;68276;49.326;8.690;2023-04-09T10:12:47;10.38;;;4.30;;
78887;SDS011;68276;49.326;8.690;2023-04-09T10:15:13;11.15;;;4.60;;
78887;SDS011;68276;49.326;8.690;2023-04-09T10:17:38;11.45;;;4.70;;
78887;SDS011;68276;49.326;8.690;2023-04-09T10:20:06;10.93;;;4.68;;
78887;SDS011;68276;49.326;8.690;2023-04-09T10:22:37;11.30;;;4.70;;
78887;SDS011;68276;49.326;8.690;2023-04-09T10:25:04;7.88;;;3.00;;
78887;SDS011;68276;49.326;8.690;2023-04-09T10:27:30;10.38;;;4.18;;
78887;SDS011;68276;49.326;8.690;2023-04-09T10:29:56;10.02;;;4.60;;
78887;SDS011;68276;49.326;8.690;2023-04-09T10:32:22;9.73;;;3.80;;
78887;SDS011;68276;49.326;8.690;2023-04-09T10:34:50;8.95;;;3.35;;
78887;SDS011;68276;49.326;8.690;2023-04-09T10:37:25;9.88;;;3.88;;
78887;SDS011;68276;49.326;8.690;2023-04-09T10:39:52;10.10;;;4.20;;
78887;SDS011;68276;49.326;8.690;2023-04-09T10:42:37;10.50;;;3.90;;
78887;SDS011;68276;49.326;8.690;2023-04-09T10:45:12;10.38;;;4.10;;
78887;SDS011;68276;49.326;8.690;2023-04-09T10:47:40;9.75;;;3.95;;
78887;SDS011;68276;49.326;8.690;2023-04-09T10:50:17;8.82;;;3.53;;
78887;SDS011;68276;49.326;8.690;2023-04-09T10:52:44;11.02;;;3.97;;
78887;SDS011;68276;49.326;8.690;2023-04-09T10:55:29;9.15;;;4.00;;
78887;SDS011;68276;49.326;8.690;2023-04-09T10:58:03;10.02;;;4.47;;
78887;SDS011;68276;49.326;8.690;2023-04-09T11:00:30;9.30;;;3.88;;
78887;SDS011;68276;49.326;8.690;2023-04-09T11:08:09;10.23;;;4.20;;
78887;SDS011;68276;49.326;8.690;2023-04-09T11:10:40;9.27;;;3.70;;
78887;SDS011;68276;49.326;8.690;2023-04-09T11:13:11;10.52;;;3.80;;
78887;SDS011;68276;49.326;8.690;2023-04-09T11:15:38;8.43;;;3.70;;
78887;SDS011;68276;49.326;8.690;2023-04-09T11:18:05;9.60;;;3.75;;
78887;SDS011;68276;49.326;8.690;2023-04-09T11:20:33;9.13;;;3.35;;
78887;SDS011;68276;49.326;8.690;2023-04-09T11:22:58;11.47;;;3.70;;
78887;SDS011;68276;49.326;8.690;2023-04-09T11:25:26;8.55;;;3.33;;
78887;SDS011;68276;49.326;8.690;2023-04-09T11:27:52;7.63;;;2.97;;
78887;SDS011;68276;49.326;8.690;2023-04-09T11:30:18;7.63;;;3.10;;
78887;SDS011;68276;49.326;8.690;2023-04-09T11:32:44;7.90;;;2.65;;
78887;SDS011;68276;49.326;8.690;2023-04-09T11:35:13;7.18;;;2.60;;
78887;SDS011;68276;49.326;8.690;2023-04-09T11:37:41;7.68;;;2.90;;
78887;SDS011;68276;49.326;8.690;2023-04-09T11:40:20;7.25;;;2.67;;
78887;SDS011;68276;49.326;8.690;2023-04-09T11:42:53;7.93;;;3.00;;
78887;SDS011;68276;49.326;8.690;2023-04-09T11:45:26;8.52;;;3.17;;
78887;SDS011;68276;49.326;8.690;2023-04-09T11:47:52;7.53;;;2.85;;
78887;SDS011;68276;49.326;8.690;2023-04-09T11:50:19;6.82;;;2.40;;
78887;SDS011;68276;49.326;8.690;2023-04-09T11:52:45;6.78;;;2.50;;
78887;SDS011;68276;49.326;8.690;2023-04-09T11:55:11;7.65;;;3.10;;
78887;SDS011;68276;49.326;8.690;2023-04-09T11:57:46;7.60;;;2.70;;
78887;SDS011;68276;49.326;8.690;2023-04-09T12:00:12;7.33;;;2.90;;
78887;SDS011;68276;49.326;8.690;2023-04-09T12:02:40;7.60;;;2.78;;
78887;SDS011;68276;49.326;8.690;2023-04-09T12:05:23;7.03;;;2.60;;
78887;SDS011;68276;49.326;8.690;2023-04-09T12:07:49;6.80;;;2.53;;
78887;SDS011;68276;49.326;8.690;2023-04-09T12:10:15;8.73;;;3.20;;
78887;SDS011;68276;49.326;8.690;2023-04-09T12:12:44;7.40;;;2.60;;
78887;SDS011;68276;49.326;8.690;2023-04-09T12:17:37;7.90;;;2.70;;
78887;SDS011;68276;49.326;8.690;2023-04-09T12:20:04;7.35;;;2.90;;
78887;SDS011;68276;49.326;8.690;2023-04-09T12:22:32;7.28;;;2.60;;
78887;SDS011;68276;49.326;8.690;2023-04-09T12:24:57;7.53;;;2.70;;
78887;SDS011;68276;49.326;8.690;2023-04-09T12:27:23;7.50;;;2.93;;
78887;SDS011;68276;49.326;8.690;2023-04-09T12:29:48;6.97;;;2.40;;
78887;SDS011;68276;49.326;8.690;2023-04-09T12:32:13;6.80;;;2.50;;
78887;SDS011;68276;49.326;8.690;2023-04-09T12:34:39;6.80;;;2.50;;
78887;SDS011;68276;49.326;8.690;2023-04-09T12:37:05;7.05;;;2.75;;
78887;SDS011;68276;49.326;8.690;2023-04-09T12:39:30;6.60;;;2.60;;
78887;SDS011;68276;49.326;8.690;2023-04-09T12:41:55;7.00;;;2.50;;
78887;SDS011;68276;49.326;8.690;2023-04-09T12:44:21;6.93;;;2.58;;
78887;SDS011;68276;49.326;8.690;2023-04-09T12:46:47;7.33;;;2.80;;
78887;SDS011;68276;49.326;8.690;2023-04-09T12:49:12;6.25;;;2.35;;
78887;SDS011;68276;49.326;8.690;2023-04-09T12:51:38;6.70;;;2.10;;
78887;SDS011;68276;49.326;8.690;2023-04-09T12:54:03;7.23;;;2.20;;
78887;SDS011;68276;49.326;8.690;2023-04-09T12:56:29;8.25;;;2.85;;
78887;SDS011;68276;49.326;8.690;2023-04-09T12:58:55;6.57;;;2.00;;
78887;SDS011;68276;49.326;8.690;2023-04-09T13:01:20;7.83;;;2.60;;
78887;SDS011;68276;49.326;8.690;2023-04-09T13:03:45;6.57;;;2.20;;
78887;SDS011;68276;49.326;8.690;2023-04-09T13:06:11;7.50;;;2.60;;
78887;SDS011;68276;49.326;8.690;2023-04-09T13:08:36;6.53;;;2.28;;
78887;SDS011;68276;49.326;8.690;2023-04-09T13:11:02;7.43;;;2.50;;
78887;SDS011;68276;49.326;8.690;2023-04-09T13:13:28;6.55;;;2.47;;
78887;SDS011;68276;49.326;8.690;2023-04-09T13:15:53;6.97;;;2.37;;
78887;SDS011;68276;49.326;8.690;2023-04-09T13:18:19;7.50;;;2.43;;
78887;SDS011;68276;49.326;8.690;2023-04-09T13:20:44;6.30;;;2.40;;
78887;SDS011;68276;49.326;8.690;2023-04-09T13:23:09;6.40;;;2.27;;
78887;SDS011;68276;49.326;8.690;2023-04-09T13:25:35;7.20;;;2.63;;
78887;SDS011;68276;49.326;8.690;2023-04-09T13:28:00;6.85;;;2.72;;
78887;SDS011;68276;49.326;8.690;2023-04-09T13:30:25;6.45;;;2.17;;
78887;SDS011;68276;49.326;8.690;2023-04-09T13:32:51;6.63;;;2.53;;
78887;SDS011;68276;49.326;8.690;2023-04-09T13:35:16;5.90;;;2.10;;
78887;SDS011;68276;49.326;8.690;2023-04-09T13:37:43;6.07;;;2.40;;
78887;SDS011;68276;49.326;8.690;2023-04-09T13:40:08;6.28;;;2.30;;
78887;SDS011;68276;49.326;8.690;2023-04-09T13:42:34;6.28;;;2.30;;
78887;SDS011;68276;49.326;8.690;2023-04-09T13:45:01;6.03;;;2.17;;
78887;SDS011;68276;49.326;8.690;2023-04-09T13:47:27;6.18;;;2.30;;
78887;SDS011;68276;49.326;8.690;2023-04-09T13:49:52;7.07;;;2.40;;
78887;SDS011;68276;49.326;8.690;2023-04-09T13:52:18;6.53;;;2.00;;
78887;SDS011;68276;49.326;8.690;2023-04-09T13:54:43;5.60;;;2.10;;
78887;SDS011;68276;49.326;8.690;2023-04-09T13:57:08;6.13;;;2.10;;
78887;SDS011;68276;49.326;8.690;2023-04-09T13:59:34;6.35;;;2.20;;
78887;SDS011;68276;49.326;8.690;2023-04-09T14:02:00;6.72;;;2.30;;
78887;SDS011;68276;49.326;8.690;2023-04-09T14:04:25;6.63;;;2.00;;
78887;SDS011;68276;49.326;8.690;2023-04-09T14:06:51;7.05;;;2.50;;
78887;SDS011;68276;49.326;8.690;2023-04-09T14:09:17;6.38;;;2.13;;
78887;SDS011;68276;49.326;8.690;2023-04-09T14:11:42;6.00;;;2.20;;
78887;SDS011;68276;49.326;8.690;2023-04-09T14:16:33;6.30;;;2.00;;
78887;SDS011;68276;49.326;8.690;2023-04-09T14:18:58;6.53;;;2.10;;
78887;SDS011;68276;49.326;8.690;2023-04-09T14:21:24;5.87;;;2.10;;
78887;SDS011;68276;49.326;8.690;2023-04-09T14:23:50;5.85;;;2.20;;
78887;SDS011;68276;49.326;8.690;2023-04-09T14:26:16;6.43;;;2.25;;
78887;SDS011;68276;49.326;8.690;2023-04-09T14:28:42;5.95;;;2.28;;
78887;SDS011;68276;49.326;8.690;2023-04-09T14:31:08;6.28;;;2.25;;
78887;SDS011;68276;49.326;8.690;2023-04-09T14:35:59;6.93;;;2.60;;
78887;SDS011;68276;49.326;8.690;2023-04-09T14:40:50;6.53;;;2.70;;
78887;SDS011;68276;49.326;8.690;2023-04-09T14:43:17;6.43;;;2.28;;
78887;SDS011;68276;49.326;8.690;2023-04-09T14:45:42;6.38;;;2.13;;
78887;SDS011;68276;49.326;8.690;2023-04-09T14:48:08;6.47;;;2.42;;
78887;SDS011;68276;49.326;8.690;2023-04-09T14:50:33;6.70;;;2.40;;
78887;SDS011;68276;49.326;8.690;2023-04-09T14:53:00;6.20;;;2.25;;
78887;SDS011;68276;49.326;8.690;2023-04-09T14:55:27;5.68;;;2.00;;
78887;SDS011;68276;49.326;8.690;2023-04-09T14:57:53;6.53;;;2.65;;
78887;SDS011;68276;49.326;8.690;2023-04-09T15:00:18;6.87;;;2.47;;
78887;SDS011;68276;49.326;8.690;2023-04-09T15:02:44;5.78;;;2.08;;
78887;SDS011;68276;49.326;8.690;2023-04-09T15:05:09;5.60;;;1.80;;
78887;SDS011;68276;49.326;8.690;2023-04-09T15:10:00;5.40;;;2.00;;
78887;SDS011;68276;49.326;8.690;2023-04-09T15:14:57;6.07;;;2.25;;
78887;SDS011;68276;49.326;8.690;2023-04-09T15:17:23;6.22;;;2.40;;